sensor_id;sensor_type;location;lat;lon;timestamp;temperature;humidity
16838;DHT22;19510;54.486;9.046;2023-08-31T00:02:24;15.30;99.90
16838;DHT22;19510;54.486;9.046;2023-08-31T00:04:52;15.20;99.90
16838;DHT22;19510;54.486;9.046;2023-08-31T00:07:23;15.30;99.90
16838;DHT22;19510;54.486;9.046;2023-08-31T00:09:49;15.30;99.90
16838;DHT22;19510;54.486;9.046;2023-08-31T00:12:18;15.30;99.90
16838;DHT22;19510;54.486;9.046;2023-08-31T00:14:43;15.30;99.90
16838;DHT22;19510;54.486;9.046;2023-08-31T00:17:09;15.30;99.90
16838;DHT22;19510;54.486;9.046;2023-08-31T00:19:35;15.30;99.90
16838;DHT22;19510;54.486;9.046;2023-08-31T00:22:01;15.20;99.90
16838;DHT22;19510;54.486;9.046;2023-08-31T00:24:26;15.20;99.90
16838;DHT22;19510;54.486;9.046;2023-08-31T00:26:57;15.20;99.90
16838;DHT22;19510;54.486;9.046;2023-08-31T00:29:23;15.20;99.90
16838;DHT22;19510;54.486;9.046;2023-08-31T00:31:51;15.10;99.90
16838;DHT22;19510;54.486;9.046;2023-08-31T00:34:19;15.10;99.90
16838;DHT22;19510;54.486;9.046;2023-08-31T00:36:45;15.10;99.90
16838;DHT22;19510;54.486;9.046;2023-08-31T00:39:11;15.10;99.90
16838;DHT22;19510;54.486;9.046;2023-08-31T00:41:37;15.00;99.90
16838;DHT22;19510;54.486;9.046;2023-08-31T00:44:03;15.10;99.90
16838;DHT22;19510;54.486;9.046;2023-08-31T00:46:33;15.10;99.90
16838;DHT22;19510;54.486;9.046;2023-08-31T00:48:59;15.10;99.90
16838;DHT22;19510;54.486;9.046;2023-08-31T00:51:25;15.10;99.90
16838;DHT22;19510;54.486;9.046;2023-08-31T00:53:52;15.10;99.90
16838;DHT22;19510;54.486;9.046;2023-08-31T00:56:20;15.00;99.90
16838;DHT22;19510;54.486;9.046;2023-08-31T00:58:46;15.10;99.90
16838;DHT22;19510;54.486;9.046;2023-08-31T01:04:19;15.00;99.90
16838;DHT22;19510;54.486;9.046;2023-08-31T01:09:39;15.00;99.90
16838;DHT22;19510;54.486;9.046;2023-08-31T01:12:35;15.00;99.90
16838;DHT22;19510;54.486;9.046;2023-08-31T01:15:03;15.00;99.90
16838;DHT22;19510;54.486;9.046;2023-08-31T01:18:09;15.00;99.90
16838;DHT22;19510;54.486;9.046;2023-08-31T01:23:18;15.00;99.90
16838;DHT22;19510;54.486;9.046;2023-08-31T01:25:45;15.00;99.90
16838;DHT22;19510;54.486;9.046;2023-08-31T01:28:13;14.90;99.90
16838;DHT22;19510;54.486;9.046;2023-08-31T01:30:39;14.90;99.90
16838;DHT22;19510;54.486;9.046;2023-08-31T01:33:05;15.00;99.90
16838;DHT22;19510;54.486;9.046;2023-08-31T01:35:37;15.00;99.90
16838;DHT22;19510;54.486;9.046;2023-08-31T01:38:07;15.00;99.90
16838;DHT22;19510;54.486;9.046;2023-08-31T01:40:58;15.00;99.90
16838;DHT22;19510;54.486;9.046;2023-08-31T01:43:26;15.00;99.90
16838;DHT22;19510;54.486;9.046;2023-08-31T01:45:53;15.00;99.90
16838;DHT22;19510;54.486;9.046;2023-08-31T01:48:19;15.00;99.90
16838;DHT22;19510;54.486;9.046;2023-08-31T01:50:44;15.00;99.90
16838;DHT22;19510;54.486;9.046;2023-08-31T01:53:10;15.10;99.90
16838;DHT22;19510;54.486;9.046;2023-08-31T01:55:38;15.00;99.90
16838;DHT22;19510;54.486;9.046;2023-08-31T01:58:04;15.00;99.90
16838;DHT22;19510;54.486;9.046;2023-08-31T02:00:32;15.00;99.90
16838;DHT22;19510;54.486;9.046;2023-08-31T02:03:04;15.00;99.90
16838;DHT22;19510;54.486;9.046;2023-08-31T02:05:35;15.00;99.90
16838;DHT22;19510;54.486;9.046;2023-08-31T02:08:01;15.00;99.90
16838;DHT22;19510;54.486;9.046;2023-08-31T02:10:27;14.90;99.90
16838;DHT22;19510;54.486;9.046;2023-08-31T02:12:55;14.90;99.90
16838;DHT22;19510;54.486;9.046;2023-08-31T02:15:20;14.90;99.90
16838;DHT22;19510;54.486;9.046;2023-08-31T02:17:48;14.90;99.90
16838;DHT22;19510;54.486;9.046;2023-08-31T02:20:14;14.90;99.90
16838;DHT22;19510;54.486;9.046;2023-08-31T02:22:40;14.90;99.90
16838;DHT22;19510;54.486;9.046;2023-08-31T02:25:06;14.90;99.90
16838;DHT22;19510;54.486;9.046;2023-08-31T02:27:32;14.90;99.90
16838;DHT22;19510;54.486;9.046;2023-08-31T02:29:57;14.90;99.90
16838;DHT22;19510;54.486;9.046;2023-08-31T02:32:23;14.90;99.90
16838;DHT22;19510;54.486;9.046;2023-08-31T02:34:49;14.90;99.90
16838;DHT22;19510;54.486;9.046;2023-08-31T02:37:16;14.90;99.90
16838;DHT22;19510;54.486;9.046;2023-08-31T02:39:41;14.90;99.90
16838;DHT22;19510;54.486;9.046;2023-08-31T02:42:07;14.90;99.90
16838;DHT22;19510;54.486;9.046;2023-08-31T02:44:35;14.90;99.90
16838;DHT22;19510;54.486;9.046;2023-08-31T02:47:01;14.80;99.90
16838;DHT22;19510;54.486;9.046;2023-08-31T02:49:27;14.80;99.90
16838;DHT22;19510;54.486;9.046;2023-08-31T02:51:53;14.90;99.90
16838;DHT22;19510;54.486;9.046;2023-08-31T02:54:21;14.90;99.90
16838;DHT22;19510;54.486;9.046;2023-08-31T02:56:47;14.90;99.90
16838;DHT22;19510;54.486;9.046;2023-08-31T02:59:13;14.90;99.90
16838;DHT22;19510;54.486;9.046;2023-08-31T03:01:39;14.80;99.90
16838;DHT22;19510;54.486;9.046;2023-08-31T03:04:05;14.80;99.90
16838;DHT22;19510;54.486;9.046;2023-08-31T03:06:32;14.80;99.90
16838;DHT22;19510;54.486;9.046;2023-08-31T03:08:58;14.80;99.90
16838;DHT22;19510;54.486;9.046;2023-08-31T03:11:23;14.90;99.90
16838;DHT22;19510;54.486;9.046;2023-08-31T03:13:49;14.90;99.90
16838;DHT22;19510;54.486;9.046;2023-08-31T03:16:17;14.80;99.90
16838;DHT22;19510;54.486;9.046;2023-08-31T03:18:45;14.80;99.90
16838;DHT22;19510;54.486;9.046;2023-08-31T03:21:11;14.80;99.90
16838;DHT22;19510;54.486;9.046;2023-08-31T03:23:37;14.80;99.90
16838;DHT22;19510;54.486;9.046;2023-08-31T03:26:09;14.80;99.90
16838;DHT22;19510;54.486;9.046;2023-08-31T03:28:34;14.70;99.90
16838;DHT22;19510;54.486;9.046;2023-08-31T03:31:01;14.70;99.90
16838;DHT22;19510;54.486;9.046;2023-08-31T03:33:27;14.70;99.90
16838;DHT22;19510;54.486;9.046;2023-08-31T03:35:59;14.70;99.90
16838;DHT22;19510;54.486;9.046;2023-08-31T03:38:25;14.70;99.90
16838;DHT22;19510;54.486;9.046;2023-08-31T03:40:54;14.70;99.90
16838;DHT22;19510;54.486;9.046;2023-08-31T03:43:20;14.70;99.90
16838;DHT22;19510;54.486;9.046;2023-08-31T03:45:46;14.60;99.90
16838;DHT22;19510;54.486;9.046;2023-08-31T03:48:12;14.50;99.90
16838;DHT22;19510;54.486;9.046;2023-08-31T03:50:38;14.40;99.90
16838;DHT22;19510;54.486;9.046;2023-08-31T03:53:03;14.40;99.90
16838;DHT22;19510;54.486;9.046;2023-08-31T03:55:29;14.40;99.90
16838;DHT22;19510;54.486;9.046;2023-08-31T03:57:55;14.30;99.90
16838;DHT22;19510;54.486;9.046;2023-08-31T04:00:21;14.30;99.90
16838;DHT22;19510;54.486;9.046;2023-08-31T04:02:46;14.20;99.90
16838;DHT22;19510;54.486;9.046;2023-08-31T04:05:17;14.20;99.90
16838;DHT22;19510;54.486;9.046;2023-08-31T04:07:42;14.20;99.90
16838;DHT22;19510;54.486;9.046;2023-08-31T04:10:08;14.20;99.90
16838;DHT22;19510;54.486;9.046;2023-08-31T04:12:34;14.20;99.90
16838;DHT22;19510;54.486;9.046;2023-08-31T04:15:00;14.20;99.90
16838;DHT22;19510;54.486;9.046;2023-08-31T04:17:26;14.20;99.90
16838;DHT22;19510;54.486;9.046;2023-08-31T04:19:54;14.20;99.90
16838;DHT22;19510;54.486;9.046;2023-08-31T04:22:19;14.10;99.90
16838;DHT22;19510;54.486;9.046;2023-08-31T04:24:45;14.10;99.90
16838;DHT22;19510;54.486;9.046;2023-08-31T04:27:11;14.20;99.90
16838;DHT22;19510;54.486;9.046;2023-08-31T04:29:37;14.20;99.90
16838;DHT22;19510;54.486;9.046;2023-08-31T04:32:03;14.20;99.90
16838;DHT22;19510;54.486;9.046;2023-08-31T04:34:29;14.10;99.90
16838;DHT22;19510;54.486;9.046;2023-08-31T04:36:54;14.10;99.90
16838;DHT22;19510;54.486;9.046;2023-08-31T04:42:43;14.10;99.90
16838;DHT22;19510;54.486;9.046;2023-08-31T04:45:09;14.10;99.90
16838;DHT22;19510;54.486;9.046;2023-08-31T04:47:37;14.10;99.90
16838;DHT22;19510;54.486;9.046;2023-08-31T04:50:05;14.10;99.90
16838;DHT22;19510;54.486;9.046;2023-08-31T04:52:32;14.20;99.90
16838;DHT22;19510;54.486;9.046;2023-08-31T04:54:58;14.20;99.90
16838;DHT22;19510;54.486;9.046;2023-08-31T04:57:23;14.20;99.90
16838;DHT22;19510;54.486;9.046;2023-08-31T04:59:49;14.20;99.90
16838;DHT22;19510;54.486;9.046;2023-08-31T05:02:15;14.10;99.90
16838;DHT22;19510;54.486;9.046;2023-08-31T05:04:41;14.10;99.90
16838;DHT22;19510;54.486;9.046;2023-08-31T05:07:06;14.20;99.90
16838;DHT22;19510;54.486;9.046;2023-08-31T05:09:35;14.10;99.90
16838;DHT22;19510;54.486;9.046;2023-08-31T05:12:03;14.10;99.90
16838;DHT22;19510;54.486;9.046;2023-08-31T05:14:29;14.10;99.90
16838;DHT22;19510;54.486;9.046;2023-08-31T05:16:55;14.10;99.90
16838;DHT22;19510;54.486;9.046;2023-08-31T05:19:21;14.00;99.90
16838;DHT22;19510;54.486;9.046;2023-08-31T05:21:50;14.00;99.90
16838;DHT22;19510;54.486;9.046;2023-08-31T05:24:15;14.00;99.90
16838;DHT22;19510;54.486;9.046;2023-08-31T05:26:41;14.00;99.90
16838;DHT22;19510;54.486;9.046;2023-08-31T05:29:07;14.00;99.90
16838;DHT22;19510;54.486;9.046;2023-08-31T05:31:33;14.00;99.90
16838;DHT22;19510;54.486;9.046;2023-08-31T05:33:58;14.00;99.90
16838;DHT22;19510;54.486;9.046;2023-08-31T05:36:24;14.00;99.90
16838;DHT22;19510;54.486;9.046;2023-08-31T05:38:53;14.10;99.90
16838;DHT22;19510;54.486;9.046;2023-08-31T05:41:18;14.10;99.90
16838;DHT22;19510;54.486;9.046;2023-08-31T05:43:46;14.10;99.90
16838;DHT22;19510;54.486;9.046;2023-08-31T05:46:12;14.10;99.90
16838;DHT22;19510;54.486;9.046;2023-08-31T05:48:38;14.20;99.90
16838;DHT22;19510;54.486;9.046;2023-08-31T05:51:06;14.20;99.90
16838;DHT22;19510;54.486;9.046;2023-08-31T05:53:32;14.20;99.90
16838;DHT22;19510;54.486;9.046;2023-08-31T05:55:58;14.20;99.90
16838;DHT22;19510;54.486;9.046;2023-08-31T05:58:36;14.30;99.90
16838;DHT22;19510;54.486;9.046;2023-08-31T06:01:03;14.30;99.90
16838;DHT22;19510;54.486;9.046;2023-08-31T06:03:32;14.20;99.90
16838;DHT22;19510;54.486;9.046;2023-08-31T06:05:59;14.30;99.90
16838;DHT22;19510;54.486;9.046;2023-08-31T06:08:27;14.30;99.90
16838;DHT22;19510;54.486;9.046;2023-08-31T06:10:53;14.30;99.90
16838;DHT22;19510;54.486;9.046;2023-08-31T06:13:19;14.30;99.90
16838;DHT22;19510;54.486;9.046;2023-08-31T06:15:47;14.20;99.90
16838;DHT22;19510;54.486;9.046;2023-08-31T06:18:15;14.30;99.90
16838;DHT22;19510;54.486;9.046;2023-08-31T06:20:41;14.30;99.90
16838;DHT22;19510;54.486;9.046;2023-08-31T06:23:06;14.40;99.90
16838;DHT22;19510;54.486;9.046;2023-08-31T06:25:32;14.40;99.90
16838;DHT22;19510;54.486;9.046;2023-08-31T06:27:58;14.40;99.90
16838;DHT22;19510;54.486;9.046;2023-08-31T06:30:24;14.50;99.90
16838;DHT22;19510;54.486;9.046;2023-08-31T06:32:50;14.50;99.90
16838;DHT22;19510;54.486;9.046;2023-08-31T06:35:23;14.60;99.90
16838;DHT22;19510;54.486;9.046;2023-08-31T06:38:00;14.70;99.90
16838;DHT22;19510;54.486;9.046;2023-08-31T06:40:30;14.70;99.90
16838;DHT22;19510;54.486;9.046;2023-08-31T06:42:55;14.80;99.90
16838;DHT22;19510;54.486;9.046;2023-08-31T06:45:21;14.80;99.90
16838;DHT22;19510;54.486;9.046;2023-08-31T06:47:47;14.90;99.90
16838;DHT22;19510;54.486;9.046;2023-08-31T06:50:12;15.00;99.90
16838;DHT22;19510;54.486;9.046;2023-08-31T06:52:38;15.10;99.90
16838;DHT22;19510;54.486;9.046;2023-08-31T06:55:06;15.20;99.90
16838;DHT22;19510;54.486;9.046;2023-08-31T06:57:32;15.20;99.90
16838;DHT22;19510;54.486;9.046;2023-08-31T06:59:58;15.20;99.90
16838;DHT22;19510;54.486;9.046;2023-08-31T07:02:27;15.10;99.90
16838;DHT22;19510;54.486;9.046;2023-08-31T07:04:53;15.10;99.90
16838;DHT22;19510;54.486;9.046;2023-08-31T07:07:19;15.00;99.90
16838;DHT22;19510;54.486;9.046;2023-08-31T07:09:46;15.00;99.90
16838;DHT22;19510;54.486;9.046;2023-08-31T07:12:12;15.00;99.90
16838;DHT22;19510;54.486;9.046;2023-08-31T07:14:38;15.00;99.90
16838;DHT22;19510;54.486;9.046;2023-08-31T07:17:04;15.00;99.90
16838;DHT22;19510;54.486;9.046;2023-08-31T07:19:36;15.00;99.90
16838;DHT22;19510;54.486;9.046;2023-08-31T07:22:02;15.00;99.90
16838;DHT22;19510;54.486;9.046;2023-08-31T07:24:32;15.00;99.90
16838;DHT22;19510;54.486;9.046;2023-08-31T07:26:57;15.10;99.90
16838;DHT22;19510;54.486;9.046;2023-08-31T07:29:25;15.10;99.90
16838;DHT22;19510;54.486;9.046;2023-08-31T07:31:51;15.10;99.90
16838;DHT22;19510;54.486;9.046;2023-08-31T07:34:17;15.10;99.90
16838;DHT22;19510;54.486;9.046;2023-08-31T07:36:46;15.10;99.90
16838;DHT22;19510;54.486;9.046;2023-08-31T07:39:12;15.20;99.90
16838;DHT22;19510;54.486;9.046;2023-08-31T07:41:38;15.20;99.90
16838;DHT22;19510;54.486;9.046;2023-08-31T07:44:04;15.20;99.90
16838;DHT22;19510;54.486;9.046;2023-08-31T07:46:30;15.20;99.90
16838;DHT22;19510;54.486;9.046;2023-08-31T07:48:56;15.30;99.90
16838;DHT22;19510;54.486;9.046;2023-08-31T07:51:24;15.40;99.90
16838;DHT22;19510;54.486;9.046;2023-08-31T07:53:51;15.50;99.90
16838;DHT22;19510;54.486;9.046;2023-08-31T07:56:17;15.60;99.90
16838;DHT22;19510;54.486;9.046;2023-08-31T07:58:42;15.70;99.90
16838;DHT22;19510;54.486;9.046;2023-08-31T08:01:08;15.80;99.90
16838;DHT22;19510;54.486;9.046;2023-08-31T08:03:34;15.90;99.90
16838;DHT22;19510;54.486;9.046;2023-08-31T08:06:00;16.00;99.90
16838;DHT22;19510;54.486;9.046;2023-08-31T08:08:25;16.00;99.90
16838;DHT22;19510;54.486;9.046;2023-08-31T08:10:54;16.00;99.90
16838;DHT22;19510;54.486;9.046;2023-08-31T08:13:22;16.00;99.90
16838;DHT22;19510;54.486;9.046;2023-08-31T08:15:50;16.10;99.90
16838;DHT22;19510;54.486;9.046;2023-08-31T08:18:18;16.00;99.90
16838;DHT22;19510;54.486;9.046;2023-08-31T08:20:50;16.00;99.90
16838;DHT22;19510;54.486;9.046;2023-08-31T08:23:16;15.90;99.90
16838;DHT22;19510;54.486;9.046;2023-08-31T08:25:44;15.80;99.90
16838;DHT22;19510;54.486;9.046;2023-08-31T08:28:11;15.80;99.90
16838;DHT22;19510;54.486;9.046;2023-08-31T08:30:37;15.80;99.90
16838;DHT22;19510;54.486;9.046;2023-08-31T08:33:03;15.90;99.90
16838;DHT22;19510;54.486;9.046;2023-08-31T08:35:31;16.00;99.90
16838;DHT22;19510;54.486;9.046;2023-08-31T08:37:57;16.10;99.90
16838;DHT22;19510;54.486;9.046;2023-08-31T08:40:23;16.30;99.90
16838;DHT22;19510;54.486;9.046;2023-08-31T08:42:49;16.40;99.90
16838;DHT22;19510;54.486;9.046;2023-08-31T08:45:16;16.40;99.90
16838;DHT22;19510;54.486;9.046;2023-08-31T08:47:46;16.50;99.90
16838;DHT22;19510;54.486;9.046;2023-08-31T08:50:12;16.50;99.90
16838;DHT22;19510;54.486;9.046;2023-08-31T08:52:39;16.60;99.90
16838;DHT22;19510;54.486;9.046;2023-08-31T08:55:05;16.70;99.90
16838;DHT22;19510;54.486;9.046;2023-08-31T08:57:33;16.80;99.90
16838;DHT22;19510;54.486;9.046;2023-08-31T08:59:59;16.90;99.90
16838;DHT22;19510;54.486;9.046;2023-08-31T09:02:25;16.90;99.90
16838;DHT22;19510;54.486;9.046;2023-08-31T09:04:53;16.80;99.90
16838;DHT22;19510;54.486;9.046;2023-08-31T09:07:23;16.80;99.90
16838;DHT22;19510;54.486;9.046;2023-08-31T09:09:53;16.70;99.90
16838;DHT22;19510;54.486;9.046;2023-08-31T09:12:23;16.60;99.90
16838;DHT22;19510;54.486;9.046;2023-08-31T09:15:03;16.50;99.90
16838;DHT22;19510;54.486;9.046;2023-08-31T09:17:39;16.40;99.90
16838;DHT22;19510;54.486;9.046;2023-08-31T09:20:05;16.50;99.90
16838;DHT22;19510;54.486;9.046;2023-08-31T09:22:32;16.50;99.90
16838;DHT22;19510;54.486;9.046;2023-08-31T09:24:58;16.60;99.90
16838;DHT22;19510;54.486;9.046;2023-08-31T09:27:24;16.70;99.90
16838;DHT22;19510;54.486;9.046;2023-08-31T09:29:50;16.70;99.90
16838;DHT22;19510;54.486;9.046;2023-08-31T09:32:22;16.80;99.90
16838;DHT22;19510;54.486;9.046;2023-08-31T09:34:48;16.80;99.90
16838;DHT22;19510;54.486;9.046;2023-08-31T09:37:16;16.70;99.90
16838;DHT22;19510;54.486;9.046;2023-08-31T09:39:44;16.70;99.90
16838;DHT22;19510;54.486;9.046;2023-08-31T09:42:10;16.70;99.90
16838;DHT22;19510;54.486;9.046;2023-08-31T09:44:45;16.70;99.90
16838;DHT22;19510;54.486;9.046;2023-08-31T09:47:17;16.70;99.90
16838;DHT22;19510;54.486;9.046;2023-08-31T09:49:45;16.60;99.90
16838;DHT22;19510;54.486;9.046;2023-08-31T09:52:11;16.60;99.90
16838;DHT22;19510;54.486;9.046;2023-08-31T09:54:39;16.60;99.90
16838;DHT22;19510;54.486;9.046;2023-08-31T09:57:05;16.50;99.90
16838;DHT22;19510;54.486;9.046;2023-08-31T09:59:33;16.60;99.90
16838;DHT22;19510;54.486;9.046;2023-08-31T10:02:02;16.50;99.90
16838;DHT22;19510;54.486;9.046;2023-08-31T10:04:29;16.40;99.90
16838;DHT22;19510;54.486;9.046;2023-08-31T10:06:56;16.40;99.90
16838;DHT22;19510;54.486;9.046;2023-08-31T10:09:22;16.30;99.90
16838;DHT22;19510;54.486;9.046;2023-08-31T10:11:48;16.20;99.90
16838;DHT22;19510;54.486;9.046;2023-08-31T10:14:15;16.20;99.90
16838;DHT22;19510;54.486;9.046;2023-08-31T10:16:44;16.20;99.90
16838;DHT22;19510;54.486;9.046;2023-08-31T10:19:12;16.20;99.90
16838;DHT22;19510;54.486;9.046;2023-08-31T10:21:40;16.20;99.90
16838;DHT22;19510;54.486;9.046;2023-08-31T10:24:06;16.20;99.90
16838;DHT22;19510;54.486;9.046;2023-08-31T10:26:32;16.20;99.90
16838;DHT22;19510;54.486;9.046;2023-08-31T10:28:59;16.30;99.90
16838;DHT22;19510;54.486;9.046;2023-08-31T10:31:29;16.30;99.90
16838;DHT22;19510;54.486;9.046;2023-08-31T10:34:03;16.30;99.90
16838;DHT22;19510;54.486;9.046;2023-08-31T10:36:39;16.40;99.90
16838;DHT22;19510;54.486;9.046;2023-08-31T10:41:39;16.40;99.90
16838;DHT22;19510;54.486;9.046;2023-08-31T10:44:24;16.40;99.90
16838;DHT22;19510;54.486;9.046;2023-08-31T10:46:53;16.30;99.90
16838;DHT22;19510;54.486;9.046;2023-08-31T10:49:21;16.30;99.90
16838;DHT22;19510;54.486;9.046;2023-08-31T10:54:26;16.30;99.90
16838;DHT22;19510;54.486;9.046;2023-08-31T10:57:14;16.40;99.90
16838;DHT22;19510;54.486;9.046;2023-08-31T11:06:31;16.90;99.90
16838;DHT22;19510;54.486;9.046;2023-08-31T11:08:57;17.10;99.90
16838;DHT22;19510;54.486;9.046;2023-08-31T11:11:25;17.30;99.90
16838;DHT22;19510;54.486;9.046;2023-08-31T11:13:56;17.40;99.90
16838;DHT22;19510;54.486;9.046;2023-08-31T11:16:25;17.50;99.90
16838;DHT22;19510;54.486;9.046;2023-08-31T11:18:53;17.60;99.90
16838;DHT22;19510;54.486;9.046;2023-08-31T11:21:19;17.70;99.90
16838;DHT22;19510;54.486;9.046;2023-08-31T11:23:47;17.70;99.90
16838;DHT22;19510;54.486;9.046;2023-08-31T11:26:17;17.70;99.90
16838;DHT22;19510;54.486;9.046;2023-08-31T11:28:46;17.90;99.90
16838;DHT22;19510;54.486;9.046;2023-08-31T11:31:11;18.10;99.90
16838;DHT22;19510;54.486;9.046;2023-08-31T11:33:37;18.30;99.90
16838;DHT22;19510;54.486;9.046;2023-08-31T11:36:06;18.50;99.90
16838;DHT22;19510;54.486;9.046;2023-08-31T11:38:31;18.70;99.90
16838;DHT22;19510;54.486;9.046;2023-08-31T11:41:00;18.80;99.90
16838;DHT22;19510;54.486;9.046;2023-08-31T11:43:26;19.00;99.90
16838;DHT22;19510;54.486;9.046;2023-08-31T11:45:52;19.10;99.90
16838;DHT22;19510;54.486;9.046;2023-08-31T11:48:18;19.20;99.90
16838;DHT22;19510;54.486;9.046;2023-08-31T11:50:44;19.30;99.90
16838;DHT22;19510;54.486;9.046;2023-08-31T11:53:10;19.50;99.90
16838;DHT22;19510;54.486;9.046;2023-08-31T11:55:51;19.60;99.90
16838;DHT22;19510;54.486;9.046;2023-08-31T11:58:20;19.80;99.90
16838;DHT22;19510;54.486;9.046;2023-08-31T12:00:59;19.90;99.90
16838;DHT22;19510;54.486;9.046;2023-08-31T12:03:26;19.90;99.90
16838;DHT22;19510;54.486;9.046;2023-08-31T12:05:52;20.10;99.90
16838;DHT22;19510;54.486;9.046;2023-08-31T12:08:26;20.30;99.90
16838;DHT22;19510;54.486;9.046;2023-08-31T12:10:56;20.50;99.90
16838;DHT22;19510;54.486;9.046;2023-08-31T12:13:26;20.50;99.90
16838;DHT22;19510;54.486;9.046;2023-08-31T12:15:55;20.60;99.90
16838;DHT22;19510;54.486;9.046;2023-08-31T12:18:20;20.40;99.90
16838;DHT22;19510;54.486;9.046;2023-08-31T12:20:55;20.60;99.90
16838;DHT22;19510;54.486;9.046;2023-08-31T12:23:23;20.80;99.90
16838;DHT22;19510;54.486;9.046;2023-08-31T12:25:50;20.90;99.90
16838;DHT22;19510;54.486;9.046;2023-08-31T12:28:20;21.00;99.90
16838;DHT22;19510;54.486;9.046;2023-08-31T12:30:51;21.00;99.90
16838;DHT22;19510;54.486;9.046;2023-08-31T12:33:20;20.90;99.90
16838;DHT22;19510;54.486;9.046;2023-08-31T12:35:46;20.90;99.90
16838;DHT22;19510;54.486;9.046;2023-08-31T12:38:13;21.00;99.90
16838;DHT22;19510;54.486;9.046;2023-08-31T12:40:41;20.90;99.90
16838;DHT22;19510;54.486;9.046;2023-08-31T12:43:07;20.90;99.90
16838;DHT22;19510;54.486;9.046;2023-08-31T12:45:33;21.20;99.90
16838;DHT22;19510;54.486;9.046;2023-08-31T12:47:59;21.20;99.90
16838;DHT22;19510;54.486;9.046;2023-08-31T12:50:27;21.10;99.90
16838;DHT22;19510;54.486;9.046;2023-08-31T12:52:55;21.20;99.90
16838;DHT22;19510;54.486;9.046;2023-08-31T12:55:21;21.30;99.90
16838;DHT22;19510;54.486;9.046;2023-08-31T12:57:47;21.30;99.90
16838;DHT22;19510;54.486;9.046;2023-08-31T13:00:14;21.20;99.90
16838;DHT22;19510;54.486;9.046;2023-08-31T13:02:41;21.00;99.90
16838;DHT22;19510;54.486;9.046;2023-08-31T13:05:08;21.20;99.90
16838;DHT22;19510;54.486;9.046;2023-08-31T13:07:38;21.30;99.90
16838;DHT22;19510;54.486;9.046;2023-08-31T13:10:05;21.50;99.90
16838;DHT22;19510;54.486;9.046;2023-08-31T13:12:33;21.50;99.90
16838;DHT22;19510;54.486;9.046;2023-08-31T13:15:03;21.50;99.90
16838;DHT22;19510;54.486;9.046;2023-08-31T13:17:28;21.50;99.90
16838;DHT22;19510;54.486;9.046;2023-08-31T13:19:57;21.50;99.90
16838;DHT22;19510;54.486;9.046;2023-08-31T13:22:25;21.50;99.90
16838;DHT22;19510;54.486;9.046;2023-08-31T13:24:51;21.50;99.90
16838;DHT22;19510;54.486;9.046;2023-08-31T13:27:17;21.50;99.90
16838;DHT22;19510;54.486;9.046;2023-08-31T13:29:45;21.30;99.90
16838;DHT22;19510;54.486;9.046;2023-08-31T13:32:11;21.50;99.90
16838;DHT22;19510;54.486;9.046;2023-08-31T13:34:37;21.30;99.90
16838;DHT22;19510;54.486;9.046;2023-08-31T13:37:03;21.20;99.90
16838;DHT22;19510;54.486;9.046;2023-08-31T13:39:34;21.00;99.90
16838;DHT22;19510;54.486;9.046;2023-08-31T13:42:01;20.60;99.90
16838;DHT22;19510;54.486;9.046;2023-08-31T13:44:29;20.40;99.90
16838;DHT22;19510;54.486;9.046;2023-08-31T13:46:55;20.00;99.90
16838;DHT22;19510;54.486;9.046;2023-08-31T13:49:24;19.70;99.90
16838;DHT22;19510;54.486;9.046;2023-08-31T13:51:50;19.40;99.90
16838;DHT22;19510;54.486;9.046;2023-08-31T13:54:18;19.20;99.90
16838;DHT22;19510;54.486;9.046;2023-08-31T13:56:44;18.80;99.90
16838;DHT22;19510;54.486;9.046;2023-08-31T13:59:10;18.70;99.90
16838;DHT22;19510;54.486;9.046;2023-08-31T14:01:36;18.60;99.90
16838;DHT22;19510;54.486;9.046;2023-08-31T14:04:03;18.50;99.90
16838;DHT22;19510;54.486;9.046;2023-08-31T14:06:34;18.60;99.90
16838;DHT22;19510;54.486;9.046;2023-08-31T14:09:06;18.50;99.90
16838;DHT22;19510;54.486;9.046;2023-08-31T14:11:35;18.50;99.90
16838;DHT22;19510;54.486;9.046;2023-08-31T14:14:03;18.40;99.90
16838;DHT22;19510;54.486;9.046;2023-08-31T14:16:31;18.40;99.90
16838;DHT22;19510;54.486;9.046;2023-08-31T14:18:57;18.40;99.90
16838;DHT22;19510;54.486;9.046;2023-08-31T14:21:23;18.50;99.90
16838;DHT22;19510;54.486;9.046;2023-08-31T14:23:48;18.50;99.90
16838;DHT22;19510;54.486;9.046;2023-08-31T14:26:17;18.70;99.90
16838;DHT22;19510;54.486;9.046;2023-08-31T14:28:43;18.90;99.90
16838;DHT22;19510;54.486;9.046;2023-08-31T14:31:09;19.00;99.90
16838;DHT22;19510;54.486;9.046;2023-08-31T14:33:36;18.90;99.90
16838;DHT22;19510;54.486;9.046;2023-08-31T14:36:04;18.90;99.90
16838;DHT22;19510;54.486;9.046;2023-08-31T14:38:30;18.90;99.90
16838;DHT22;19510;54.486;9.046;2023-08-31T14:40:56;19.00;99.90
16838;DHT22;19510;54.486;9.046;2023-08-31T14:43:22;19.00;99.90
16838;DHT22;19510;54.486;9.046;2023-08-31T14:45:48;19.10;99.90
16838;DHT22;19510;54.486;9.046;2023-08-31T14:48:13;19.30;99.90
16838;DHT22;19510;54.486;9.046;2023-08-31T14:50:45;19.50;99.90
16838;DHT22;19510;54.486;9.046;2023-08-31T14:53:11;19.40;99.90
16838;DHT22;19510;54.486;9.046;2023-08-31T14:55:41;19.50;99.90
16838;DHT22;19510;54.486;9.046;2023-08-31T14:58:13;19.70;99.90
16838;DHT22;19510;54.486;9.046;2023-08-31T15:00:39;19.90;99.90
16838;DHT22;19510;54.486;9.046;2023-08-31T15:03:04;20.10;99.90
16838;DHT22;19510;54.486;9.046;2023-08-31T15:05:32;20.10;99.90
16838;DHT22;19510;54.486;9.046;2023-08-31T15:08:00;20.00;99.90
16838;DHT22;19510;54.486;9.046;2023-08-31T15:10:29;20.10;99.90
16838;DHT22;19510;54.486;9.046;2023-08-31T15:12:54;20.00;99.90
16838;DHT22;19510;54.486;9.046;2023-08-31T15:15:27;19.80;99.90
16838;DHT22;19510;54.486;9.046;2023-08-31T15:17:54;19.80;99.90
16838;DHT22;19510;54.486;9.046;2023-08-31T15:20:19;19.80;99.90
16838;DHT22;19510;54.486;9.046;2023-08-31T15:22:45;19.80;99.90
16838;DHT22;19510;54.486;9.046;2023-08-31T15:25:11;19.70;99.90
16838;DHT22;19510;54.486;9.046;2023-08-31T15:27:39;19.80;99.90
16838;DHT22;19510;54.486;9.046;2023-08-31T15:30:08;19.90;99.90
16838;DHT22;19510;54.486;9.046;2023-08-31T15:32:36;19.90;99.90
16838;DHT22;19510;54.486;9.046;2023-08-31T15:35:03;19.80;99.90
16838;DHT22;19510;54.486;9.046;2023-08-31T15:37:29;19.40;99.90
16838;DHT22;19510;54.486;9.046;2023-08-31T15:39:55;19.10;99.90
16838;DHT22;19510;54.486;9.046;2023-08-31T15:42:25;18.80;99.90
16838;DHT22;19510;54.486;9.046;2023-08-31T15:44:51;18.40;99.90
16838;DHT22;19510;54.486;9.046;2023-08-31T15:47:18;18.10;99.90
16838;DHT22;19510;54.486;9.046;2023-08-31T15:49:44;17.80;99.90
16838;DHT22;19510;54.486;9.046;2023-08-31T15:52:10;17.50;99.90
16838;DHT22;19510;54.486;9.046;2023-08-31T15:54:40;17.20;99.90
16838;DHT22;19510;54.486;9.046;2023-08-31T15:57:08;17.00;99.90